KCIN

Arthur N Neu Airport

Carroll, Iowa, USA
METAR KCIN 140515Z AUTO 20011KT 10SM OVC065 M03/M07 A3042 RMK AO2
Observed Flight Rules
Nov-14 @ 05:15 UTC (11 minutes ago) Visual Flight Rules
Wind Visibility Clouds
200° at 11 knots 10 miles
  • Overcast at 6,500' AGL
Temperatures Readings
Current -3°C / 27°F
Dewpoint -7°C / 19°F
Humidity 74%
Altimeter 30.42" Hg
Pressure 1030 hPa
Elevation 375
METAR KCIN 140515Z AUTO 20011KT 10SM OVC065 M03/M07 A3042 RMK AO2
Observed Flight Rules
Nov-14 @ 05:15 UTC
(11 minutes ago)
VFR
Wind Visibility
200° at 11 knots 10 miles
Clouds
  • Overcast at 6,500' AGL
Temperature Dewpoint
-3°C / 27°F -7°C / 19°F
Humidity Altimeter Pressure
74% 30.42" Hg 1030 hPa